Time;durP1;ratioP1;P1;durP2;ratioP2;P2;SDS_P1;SDS_P2;PMS_P1;PMS_P2;Temp;Humidity;BMP_temperature;BMP_pressure;BME280_temperature;BME280_humidity;BME280_pressure;Samples;Min_cycle;Max_cycle;Signal;HPM_P1;HPM_P2
2023/02/22 00:02:26;;;;;;;;;;;;;;;27.99;57.53;101228.34;5090510;27;69794;-41
2023/02/22 00:04:56;;;;;;;;;;;;;;;28.02;58.30;101241.44;5073841;27;65411;-44
2023/02/22 00:07:26;;;;;;;;;;;;;;;28.02;61.23;101239.56;5090629;27;69807;-43
2023/02/22 00:09:59;;;;;;;;;;;;;;;28.04;60.18;101253.72;5097381;27;66571;-43
2023/02/22 00:12:29;;;;;;;;;;;;;;;28.06;62.30;101251.66;5094538;27;70551;-43
2023/02/22 00:14:59;;;;;;;;;;;;;;;28.07;61.51;101253.31;5096936;27;65191;-44
2023/02/22 00:17:31;;;;;;;;;;;;;;;28.13;59.97;101256.28;5080450;27;69111;-42
2023/02/22 00:20:04;;;;;;;;;;;;;;;28.13;60.04;101259.81;5081203;27;67915;-43
2023/02/22 00:22:35;;;;;;;;;;;;;;;28.18;59.74;101259.22;5097282;27;69480;-42
2023/02/22 00:25:05;;;;;;;;;;;;;;;28.19;60.35;101258.19;5098142;27;66130;-42
2023/02/22 00:27:35;;;;;;;;;;;;;;;28.20;60.14;101259.88;5096297;27;69941;-42
2023/02/22 00:30:06;;;;;;;;;;;;;;;28.22;60.15;101255.97;5091008;27;66662;-42
2023/02/22 00:32:36;;;;;;;;;;;;;;;28.23;60.68;101267.59;5081160;27;69571;-42
2023/02/22 00:35:07;;;;;;;;;;;;;;;28.22;61.51;101265.91;5094899;27;66364;-42
2023/02/22 00:37:40;;;;;;;;;;;;;;;28.22;61.63;101260.50;5095406;27;70296;-40
2023/02/22 00:40:11;;;;;;;;;;;;;;;28.24;59.61;101264.69;5091518;27;66010;-41
2023/02/22 00:42:42;;;;;;;;;;;;;;;28.28;59.38;101267.84;5079580;27;69936;-43
2023/02/22 00:45:15;;;;;;;;;;;;;;;28.27;61.18;101263.47;5097025;27;66742;-41
2023/02/22 00:47:46;;;;;;;;;;;;;;;28.30;59.91;101263.06;5093755;27;69994;-41
2023/02/22 00:50:17;;;;;;;;;;;;;;;28.28;59.38;101267.84;5062943;27;65191;-42
2023/02/22 00:52:48;;;;;;;;;;;;;;;28.27;59.26;101276.94;5063957;27;70190;-42
2023/02/22 00:55:29;;;;;;;;;;;;;;;28.27;59.03;101272.38;5089269;27;65744;-42
2023/02/22 00:58:00;;;;;;;;;;;;;;;28.29;59.45;101283.00;5071912;27;70322;-42
2023/02/22 01:00:36;;;;;;;;;;;;;;;28.28;58.89;101276.78;5096442;27;66603;-42
2023/02/22 01:03:09;;;;;;;;;;;;;;;28.29;58.69;101280.28;5096333;27;69843;-41
2023/02/22 01:05:40;;;;;;;;;;;;;;;28.29;58.76;101300.00;5083091;27;66624;-41
2023/02/22 01:08:11;;;;;;;;;;;;;;;28.29;58.72;101299.19;5061700;27;69851;-41
2023/02/22 01:10:42;;;;;;;;;;;;;;;28.29;58.64;101299.19;5085435;27;65891;-41
2023/02/22 01:13:12;;;;;;;;;;;;;;;28.30;58.32;101298.16;5085012;27;70257;-43
2023/02/22 01:15:43;;;;;;;;;;;;;;;28.31;58.30;101297.13;5096025;27;66009;-42
2023/02/22 01:18:16;;;;;;;;;;;;;;;28.31;58.56;101302.53;5093337;27;70073;-41
2023/02/22 01:20:48;;;;;;;;;;;;;;;28.32;58.43;101303.38;5071769;27;66403;-41
2023/02/22 01:23:19;;;;;;;;;;;;;;;28.33;58.38;101305.84;5078555;27;70528;-42
2023/02/22 01:25:50;;;;;;;;;;;;;;;28.34;58.04;101296.75;5083711;27;66987;-40
2023/02/22 01:28:21;;;;;;;;;;;;;;;28.34;57.78;101294.03;5101285;27;70977;-42
2023/02/22 01:30:51;;;;;;;;;;;;;;;28.35;57.99;101298.41;5065378;27;65285;-42
2023/02/22 01:33:24;;;;;;;;;;;;;;;28.37;57.66;101307.16;5097226;27;69315;-41
2023/02/22 01:35:55;;;;;;;;;;;;;;;28.39;57.93;101305.09;5095852;27;66264;-40
2023/02/22 01:38:25;;;;;;;;;;;;;;;28.39;57.46;101299.69;5099908;27;68765;-43
2023/02/22 01:40:55;;;;;;;;;;;;;;;28.40;57.88;101301.38;5064370;27;66050;-40
2023/02/22 01:43:28;;;;;;;;;;;;;;;28.42;57.29;101302.03;5101462;27;70758;-40
2023/02/22 01:46:07;;;;;;;;;;;;;;;28.43;57.75;101306.41;5077778;27;66274;-42
2023/02/22 01:48:40;;;;;;;;;;;;;;;28.45;57.28;101307.06;5093754;27;70449;-41
2023/02/22 01:51:13;;;;;;;;;;;;;;;28.46;57.25;101303.31;5100352;27;66244;-41
2023/02/22 01:53:57;;;;;;;;;;;;;;;28.47;57.07;101299.59;5099739;27;69978;-39
2023/02/22 01:56:30;;;;;;;;;;;;;;;28.49;57.42;101305.63;5083133;27;66474;-40
2023/02/22 01:59:02;;;;;;;;;;;;;;;28.50;57.19;101301.91;5079456;27;70004;-40
2023/02/22 02:01:35;;;;;;;;;;;;;;;28.52;57.17;101296.31;5076739;27;66521;-40
2023/02/22 02:04:09;;;;;;;;;;;;;;;28.10;57.32;101229.69;5077383;27;71027;-47
2023/02/22 02:06:41;;;;;;;;;;;;;;;28.56;56.88;101294.91;5096045;27;66390;-42
2023/02/22 02:09:15;;;;;;;;;;;;;;;28.57;57.31;101301.97;5096794;27;69861;-40
2023/02/22 02:11:46;;;;;;;;;;;;;;;28.59;57.05;101299.91;5098222;27;66949;-41
2023/02/22 02:14:16;;;;;;;;;;;;;;;28.61;56.97;101302.41;5082096;27;70605;-41
2023/02/22 02:16:49;;;;;;;;;;;;;;;28.63;56.84;101300.34;5090420;27;66967;-41
2023/02/22 02:19:43;;;;;;;;;;;;;;;28.65;56.60;101307.22;5098835;27;70390;-40
2023/02/22 02:22:37;;;;;;;;;;;;;;;28.67;56.71;101301.63;5100206;27;66535;-40
2023/02/22 02:25:21;;;;;;;;;;;;;;;28.69;56.75;101300.38;5083341;27;70162;-40
2023/02/22 02:27:56;;;;;;;;;;;;;;;28.70;56.48;101302.06;5095824;27;66446;-40
2023/02/22 02:30:45;;;;;;;;;;;;;;;28.73;56.35;101303.56;5065874;27;70732;-41
2023/02/22 02:33:20;;;;;;;;;;;;;;;28.75;56.40;101301.47;5077986;27;66719;-41
2023/02/22 02:35:57;;;;;;;;;;;;;;;28.78;56.88;101302.94;5080102;27;69785;-41
2023/02/22 02:38:38;;;;;;;;;;;;;;;28.81;56.47;101300.72;5090960;27;65994;-40
2023/02/22 02:41:20;;;;;;;;;;;;;;;28.82;56.30;101299.66;5097805;27;70329;-40
2023/02/22 02:44:01;;;;;;;;;;;;;;;28.85;56.41;101299.28;5094606;27;66901;-41
2023/02/22 02:46:58;;;;;;;;;;;;;;;28.87;56.19;101291.81;5077391;27;69679;-42
2023/02/22 02:49:37;;;;;;;;;;;;;;;28.91;56.16;101293.06;5094235;27;66536;-40
2023/02/22 02:52:08;;;;;;;;;;;;;;;28.91;56.10;101290.38;5078288;27;69333;-42
2023/02/22 02:54:39;;;;;;;;;;;;;;;28.94;56.38;101292.69;5091324;27;65636;-42
2023/02/22 02:57:09;;;;;;;;;;;;;;;28.98;56.46;101292.31;5079451;27;70871;-41
2023/02/22 02:59:40;;;;;;;;;;;;;;;29.00;56.49;101292.94;5091655;27;67041;-41
2023/02/22 03:02:19;;;;;;;;;;;;;;;29.03;56.31;101300.63;5096467;27;70163;-42
2023/02/22 03:04:55;;;;;;;;;;;;;;;29.04;56.30;101292.38;5096684;27;66108;-41
2023/02/22 03:07:39;;;;;;;;;;;;;;;29.08;56.19;101290.09;5090919;27;69773;-41
2023/02/22 03:10:12;;;;;;;;;;;;;;;29.10;56.31;101280.78;5089236;27;66265;-42
2023/02/22 03:12:57;;;;;;;;;;;;;;;29.13;56.20;101284.94;5096746;27;70252;-42
2023/02/22 03:15:35;;;;;;;;;;;;;;;29.15;56.03;101267.50;5081145;27;65731;-40
2023/02/22 03:18:08;;;;;;;;;;;;;;;29.18;56.24;101271.69;5096121;27;68888;-41
2023/02/22 03:20:44;;;;;;;;;;;;;;;29.21;55.76;101276.69;5088538;27;67170;-41
2023/02/22 03:23:23;;;;;;;;;;;;;;;29.23;55.96;101274.63;5099694;27;70143;-43
2023/02/22 03:26:03;;;;;;;;;;;;;;;29.28;55.99;101271.28;5097611;27;66020;-40
2023/02/22 03:28:39;;;;;;;;;;;;;;;29.30;56.11;101255.72;5059994;27;69978;-41
2023/02/22 03:31:13;;;;;;;;;;;;;;;29.33;55.54;101258.84;5079649;27;67211;-42
2023/02/22 03:34:10;;;;;;;;;;;;;;;29.35;55.42;101256.78;5069265;27;70619;-42
2023/02/22 03:36:47;;;;;;;;;;;;;;;29.38;55.45;101256.38;5089615;27;66764;-43
2023/02/22 03:39:19;;;;;;;;;;;;;;;29.42;55.24;101256.84;5087646;27;69074;-41
2023/02/22 03:41:52;;;;;;;;;;;;;;;29.44;55.68;101245.81;5072606;27;65804;-40
2023/02/22 03:44:26;;;;;;;;;;;;;;;29.47;55.82;101248.09;5066187;27;69151;-41
2023/02/22 03:47:00;;;;;;;;;;;;;;;29.49;55.27;101236.06;5070599;27;65837;-41
2023/02/22 03:49:31;;;;;;;;;;;;;;;29.52;55.59;101229.41;5077423;27;70230;-42
2023/02/22 03:52:03;;;;;;;;;;;;;;;29.55;55.26;101226.31;5095732;27;66155;-40
2023/02/22 03:54:34;;;;;;;;;;;;;;;29.58;55.54;101229.41;5079285;27;70096;-41
2023/02/22 03:57:09;;;;;;;;;;;;;;;29.61;55.42;101214.66;5078327;27;66361;-42
2023/02/22 03:59:43;;;;;;;;;;;;;;;29.64;54.96;101211.59;5076764;27;70233;-41
2023/02/22 04:02:17;;;;;;;;;;;;;;;29.66;54.90;101206.81;5080837;27;66026;-48
2023/02/22 04:04:47;;;;;;;;;;;;;;;29.69;54.88;101211.81;5091910;27;70291;-42
2023/02/22 04:07:18;;;;;;;;;;;;;;;29.72;55.28;101202.47;5073015;27;65965;-48
2023/02/22 04:09:49;;;;;;;;;;;;;;;29.75;55.02;101192.06;5067795;27;69401;-41
2023/02/22 04:12:20;;;;;;;;;;;;;;;29.77;54.66;101184.59;5083395;27;67117;-43
2023/02/22 04:14:59;;;;;;;;;;;;;;;29.80;54.89;101178.75;5077752;27;70057;-42
2023/02/22 04:17:29;;;;;;;;;;;;;;;29.82;54.69;101179.41;5079286;27;65958;-40
2023/02/22 04:20:00;;;;;;;;;;;;;;;29.87;54.16;101173.38;5065860;27;69209;-41
2023/02/22 04:22:40;;;;;;;;;;;;;;;29.91;54.14;101163.81;5093518;27;66569;-42
2023/02/22 04:25:11;;;;;;;;;;;;;;;29.95;54.43;101164.22;5090780;27;69833;-41
2023/02/22 04:27:42;;;;;;;;;;;;;;;29.96;54.29;101165.91;5071432;27;66401;-41
2023/02/22 04:30:16;;;;;;;;;;;;;;;29.98;54.09;101156.53;5087060;27;69695;-41
2023/02/22 04:32:48;;;;;;;;;;;;;;;30.02;54.36;101160.47;5057423;27;66419;-41
2023/02/22 04:35:22;;;;;;;;;;;;;;;30.05;53.98;101162.75;5084131;27;70500;-40
2023/02/22 04:37:52;;;;;;;;;;;;;;;30.07;53.64;101146.34;5095321;27;65665;-42
2023/02/22 04:40:23;;;;;;;;;;;;;;;30.10;53.62;101145.91;5074516;27;70572;-40
2023/02/22 04:42:53;;;;;;;;;;;;;;;30.13;53.77;101140.09;5080609;27;66010;-42
2023/02/22 04:45:23;;;;;;;;;;;;;;;30.17;54.04;101140.50;5080210;27;69739;-41
2023/02/22 04:47:53;;;;;;;;;;;;;;;30.20;53.72;101140.06;5091172;27;66153;-41
2023/02/22 04:50:23;;;;;;;;;;;;;;;30.22;53.90;101133.44;5078928;27;70225;-41
2023/02/22 04:52:55;;;;;;;;;;;;;;;30.24;53.87;101120.53;5092844;27;66153;-41
2023/02/22 04:55:26;;;;;;;;;;;;;;;30.27;53.85;101120.13;5080106;28;69693;-40
2023/02/22 04:57:57;;;;;;;;;;;;;;;30.31;53.77;101106.16;5084534;27;66152;-43
2023/02/22 05:00:28;;;;;;;;;;;;;;;30.33;53.39;101101.38;5095658;27;70196;-41
2023/02/22 05:03:02;;;;;;;;;;;;;;;30.36;53.16;101098.25;5077419;27;67344;-42
2023/02/22 05:05:32;;;;;;;;;;;;;;;30.39;53.01;101100.53;5076686;27;69470;-41
2023/02/22 05:08:03;;;;;;;;;;;;;;;30.41;53.30;101087.63;5080624;27;66146;-41
2023/02/22 05:10:33;;;;;;;;;;;;;;;30.42;52.68;101092.84;5081821;27;68801;-43
2023/02/22 05:13:04;;;;;;;;;;;;;;;30.45;52.99;101086.13;5076342;27;66102;-41
2023/02/22 05:15:34;;;;;;;;;;;;;;;30.45;52.83;101078.00;5092777;27;69050;-41
2023/02/22 05:18:05;;;;;;;;;;;;;;;30.46;52.61;101075.09;5090354;27;65853;-41
2023/02/22 05:20:35;;;;;;;;;;;;;;;30.48;52.43;101072.19;5098073;27;70186;-44
2023/02/22 05:23:06;;;;;;;;;;;;;;;30.48;52.59;101072.19;5101087;27;66207;-41
2023/02/22 05:25:36;;;;;;;;;;;;;;;30.49;53.04;101063.03;5082294;27;70761;-41
2023/02/22 05:28:13;;;;;;;;;;;;;;;30.49;52.62;101052.19;5098840;27;66044;-42
2023/02/22 05:30:44;;;;;;;;;;;;;;;30.53;52.86;101053.41;5093464;27;69513;-39
2023/02/22 05:33:14;;;;;;;;;;;;;;;30.54;52.54;101044.28;5089452;27;66006;-41
2023/02/22 05:35:45;;;;;;;;;;;;;;;30.58;52.91;101041.97;5062404;27;70268;-42
2023/02/22 05:38:16;;;;;;;;;;;;;;;30.58;52.87;101040.06;5089248;27;66803;-41
2023/02/22 05:40:46;;;;;;;;;;;;;;;30.60;52.98;101027.16;5094255;27;70625;-41
2023/02/22 05:43:16;;;;;;;;;;;;;;;30.63;52.75;101032.16;5072052;27;66415;-40
2023/02/22 05:45:47;;;;;;;;;;;;;;;30.65;52.41;101018.41;5091237;27;70584;-40
2023/02/22 05:48:18;;;;;;;;;;;;;;;30.67;52.63;101022.56;5090442;27;66725;-42
2023/02/22 05:50:50;;;;;;;;;;;;;;;30.47;52.73;100983.91;5095797;27;69731;-45
2023/02/22 05:53:22;;;;;;;;;;;;;;;30.71;52.50;101012.94;5088756;27;66772;-41
2023/02/22 05:55:55;;;;;;;;;;;;;;;30.72;52.63;101014.59;5092104;27;69309;-40
2023/02/22 05:58:25;;;;;;;;;;;;;;;30.57;52.27;100981.56;5093115;27;66901;-40
2023/02/22 06:00:56;;;;;;;;;;;;;;;30.76;52.29;100997.91;5093341;27;69696;-40
2023/02/22 06:04:02;;;;;;;;;;;;;;;30.78;51.95;101006.66;5096376;27;65748;-41
2023/02/22 06:07:07;;;;;;;;;;;;;;;30.72;52.80;101001.06;5090786;27;70709;-42
2023/02/22 06:10:12;;;;;;;;;;;;;;;30.37;50.37;100989.78;5081991;27;65897;-41
2023/02/22 06:13:16;;;;;;;;;;;;;;;30.07;48.96;100984.03;5098410;27;69889;-41
2023/02/22 06:16:21;;;;;;;;;;;;;;;29.82;47.19;100987.41;5091030;27;65659;-41
2023/02/22 06:19:25;;;;;;;;;;;;;;;29.63;46.09;100980.16;5087500;27;69365;-43
2023/02/22 06:22:29;;;;;;;;;;;;;;;29.50;44.36;100977.41;5082493;27;65526;-41
2023/02/22 06:25:33;;;;;;;;;;;;;;;29.42;44.20;100958.72;5093438;27;70636;-41
2023/02/22 06:28:36;;;;;;;;;;;;;;;29.32;43.30;100959.97;5096807;27;67062;-39
2023/02/22 06:31:41;;;;;;;;;;;;;;;29.16;42.72;100952.28;5092763;27;70588;-42
2023/02/22 06:34:45;;;;;;;;;;;;;;;29.06;42.34;100949.13;5099046;27;66047;-42
2023/02/22 06:37:49;;;;;;;;;;;;;;;29.04;42.37;100935.03;5095432;27;70342;-42
2023/02/22 06:40:54;;;;;;;;;;;;;;;28.96;41.85;100933.31;5096286;27;66210;-41
2023/02/22 06:43:58;;;;;;;;;;;;;;;28.94;41.53;100930.81;5086722;27;70802;-41
2023/02/22 06:47:02;;;;;;;;;;;;;;;28.94;41.23;100924.59;5092396;27;66762;-40
2023/02/22 06:50:08;;;;;;;;;;;;;;;28.81;40.99;100924.59;5093474;27;70678;-40
2023/02/22 06:53:12;;;;;;;;;;;;;;;28.76;41.25;100922.50;5080204;27;65596;-41
2023/02/22 06:56:16;;;;;;;;;;;;;;;28.72;40.71;100910.44;5079147;27;70529;-40
2023/02/22 06:59:22;;;;;;;;;;;;;;;28.67;40.27;100902.13;5098095;27;66951;-40
2023/02/22 07:02:27;;;;;;;;;;;;;;;28.82;41.50;100897.38;5081329;27;69772;-41
2023/02/22 07:05:30;;;;;;;;;;;;;;;29.23;45.02;100888.28;5095471;27;66500;-42
2023/02/22 07:08:35;;;;;;;;;;;;;;;29.51;48.91;100871.00;5081216;27;70785;-41
2023/02/22 07:11:39;;;;;;;;;;;;;;;29.72;50.61;100872.63;5096229;27;66873;-40
2023/02/22 07:14:43;;;;;;;;;;;;;;;29.90;52.27;100869.25;5095691;27;70530;-43
2023/02/22 07:17:47;;;;;;;;;;;;;;;30.02;53.45;100859.41;5094394;27;65921;-42
2023/02/22 07:20:51;;;;;;;;;;;;;;;30.16;53.31;100855.59;5092802;27;69565;-42
2023/02/22 07:23:57;;;;;;;;;;;;;;;30.26;53.97;100847.88;5079788;27;66807;-41
2023/02/22 07:27:01;;;;;;;;;;;;;;;30.38;53.32;100839.06;5090729;27;70776;-40
2023/02/22 07:30:07;;;;;;;;;;;;;;;30.39;55.16;100832.59;5093560;27;66900;-41
2023/02/22 07:33:12;;;;;;;;;;;;;;;30.28;55.44;100828.69;5091950;27;69734;-42
2023/02/22 07:36:16;;;;;;;;;;;;;;;30.24;56.12;100833.72;5089330;27;65789;-41
2023/02/22 07:39:21;;;;;;;;;;;;;;;30.23;56.17;100826.66;5093945;27;70186;-40
2023/02/22 07:42:25;;;;;;;;;;;;;;;30.23;56.21;100823.94;5091780;27;65972;-42
2023/02/22 07:45:31;;;;;;;;;;;;;;;30.23;56.66;100832.06;5078077;27;70240;-41
2023/02/22 07:48:35;;;;;;;;;;;;;;;30.27;56.68;100830.56;5092203;27;66792;-43
2023/02/22 07:51:39;;;;;;;;;;;;;;;30.30;57.11;100820.38;5075629;27;69892;-41
2023/02/22 07:54:45;;;;;;;;;;;;;;;30.32;57.18;100823.69;5095131;27;66408;-42
2023/02/22 07:57:50;;;;;;;;;;;;;;;30.36;56.49;100830.31;5088564;27;70646;-41
2023/02/22 08:00:55;;;;;;;;;;;;;;;30.58;55.94;100828.91;5086412;27;66276;-41
2023/02/22 08:03:59;;;;;;;;;;;;;;;30.73;55.48;100832.13;5091126;27;70417;-41
2023/02/22 08:07:03;;;;;;;;;;;;;;;30.86;55.16;100831.22;5092347;27;66967;-41
2023/02/22 08:10:08;;;;;;;;;;;;;;;30.96;54.33;100830.72;5091084;27;70341;-41
2023/02/22 08:13:12;;;;;;;;;;;;;;;31.04;53.84;100822.31;5077023;27;66731;-43
2023/02/22 08:16:17;;;;;;;;;;;;;;;31.12;54.05;100818.47;5095269;27;70413;-42
2023/02/22 08:19:21;;;;;;;;;;;;;;;31.20;53.58;100822.78;5095129;27;66546;-43
2023/02/22 08:22:28;;;;;;;;;;;;;;;31.26;53.63;100821.88;5096044;27;70067;-42
2023/02/22 08:25:33;;;;;;;;;;;;;;;31.32;53.61;100818.28;5081716;27;65642;-41
2023/02/22 08:28:37;;;;;;;;;;;;;;;31.37;53.68;100821.16;5094122;27;69389;-42
2023/02/22 08:31:41;;;;;;;;;;;;;;;31.41;53.35;100816.16;5092642;27;67012;-42
2023/02/22 08:34:45;;;;;;;;;;;;;;;31.43;53.31;100825.72;5089583;27;69545;-43
2023/02/22 08:37:51;;;;;;;;;;;;;;;31.48;53.34;100823.16;5077591;27;66518;-41
2023/02/22 08:40:55;;;;;;;;;;;;;;;31.52;53.30;100827.06;5091500;27;69248;-42
2023/02/22 08:44:01;;;;;;;;;;;;;;;31.55;53.36;100815.75;5083825;27;66456;-42
2023/02/22 08:47:06;;;;;;;;;;;;;;;31.58;53.19;100814.47;5094469;27;69397;-41
2023/02/22 08:50:15;;;;;;;;;;;;;;;31.60;53.24;100821.34;5090832;27;67136;-42
2023/02/22 08:53:19;;;;;;;;;;;;;;;31.64;52.86;100826.31;5095503;27;69823;-41
2023/02/22 08:56:24;;;;;;;;;;;;;;;31.66;52.73;100818.78;5087888;27;66994;-42
2023/02/22 08:59:31;;;;;;;;;;;;;;;31.67;53.30;100825.84;5090764;27;64320;-41
2023/02/22 09:02:35;;;;;;;;;;;;;;;31.68;53.26;100824.78;5074014;27;66881;-41
2023/02/22 09:05:40;;;;;;;;;;;;;;;31.72;52.95;100828.72;5076328;27;70082;-43
2023/02/22 09:08:45;;;;;;;;;;;;;;;31.72;52.95;100824.09;5090982;27;66883;-41
2023/02/22 09:11:49;;;;;;;;;;;;;;;31.74;52.78;100826.59;5097693;27;68870;-42
2023/02/22 09:14:53;;;;;;;;;;;;;;;31.74;52.65;100829.31;5098629;27;65727;-41
2023/02/22 09:17:58;;;;;;;;;;;;;;;31.75;52.76;100828.25;5089355;27;69835;-41
2023/02/22 09:21:03;;;;;;;;;;;;;;;31.77;52.44;100831.56;5093061;27;66165;-40
2023/02/22 09:24:07;;;;;;;;;;;;;;;31.77;52.70;100831.56;5090807;27;69876;-42
2023/02/22 09:27:12;;;;;;;;;;;;;;;31.78;52.78;100833.22;5091185;27;66657;-42
2023/02/22 09:29:51;;;;;;;;;;;;;;;31.79;52.63;100840.31;5096394;27;69884;-41
2023/02/22 09:32:27;;;;;;;;;;;;;;;31.80;52.85;100841.97;5090716;27;67014;-41
2023/02/22 09:34:58;;;;;;;;;;;;;;;31.80;52.80;100847.38;5096649;27;70453;-41
2023/02/22 09:37:28;;;;;;;;;;;;;;;31.80;52.64;100850.91;5077354;27;66830;-41
2023/02/22 09:39:58;;;;;;;;;;;;;;;31.82;52.90;100851.53;5093031;27;70690;-43
2023/02/22 09:42:40;;;;;;;;;;;;;;;31.81;52.71;100857.16;5090861;27;66592;-43
2023/02/22 09:45:13;;;;;;;;;;;;;;;31.61;52.79;100833.00;5097075;27;70250;-46
2023/02/22 09:47:53;;;;;;;;;;;;;;;31.82;52.71;100869.69;5098790;27;65245;-41
2023/02/22 09:50:28;;;;;;;;;;;;;;;31.84;53.24;100859.41;5095824;27;69761;-45
2023/02/22 09:53:04;;;;;;;;;;;;;;;31.82;53.07;100865.09;5090705;27;66534;-41
2023/02/22 09:55:44;;;;;;;;;;;;;;;31.84;52.98;100864.84;5082495;27;69525;-42
2023/02/22 09:58:20;;;;;;;;;;;;;;;31.82;53.45;100862.38;5091303;27;67052;-41
2023/02/22 10:00:58;;;;;;;;;;;;;;;31.84;53.00;100872.97;5090133;27;70084;-41
2023/02/22 10:03:33;;;;;;;;;;;;;;;31.83;53.60;100872.16;5098368;27;65600;-43
2023/02/22 10:06:11;;;;;;;;;;;;;;;31.82;53.57;100867.81;5092585;27;70683;-41
2023/02/22 10:08:46;;;;;;;;;;;;;;;31.82;53.51;100873.22;5095924;27;66902;-44
2023/02/22 10:11:16;;;;;;;;;;;;;;;31.80;53.48;100869.09;5082856;27;70172;-41
2023/02/22 10:13:54;;;;;;;;;;;;;;;31.81;53.62;100876.16;5095988;27;67241;-41
2023/02/22 10:17:11;;;;;;;;;;;;;;;31.78;54.18;100882.03;5074437;27;71168;-42
2023/02/22 10:19:44;;;;;;;;;;;;;;;31.79;54.34;100883.72;5073960;27;66688;-43
2023/02/22 10:22:14;;;;;;;;;;;;;;;31.78;54.21;100872.00;5094557;27;70682;-41
2023/02/22 10:24:44;;;;;;;;;;;;;;;31.75;54.44;100874.34;5091188;27;66269;-42
2023/02/22 10:27:18;;;;;;;;;;;;;;;31.58;56.01;100874.13;5091992;27;70775;-42
2023/02/22 10:29:52;;;;;;;;;;;;;;;31.43;56.94;100882.63;5097629;27;65105;-43
2023/02/22 10:32:30;;;;;;;;;;;;;;;31.33;57.15;100879.56;5075370;27;69624;-45
2023/02/22 10:35:04;;;;;;;;;;;;;;;31.27;57.75;100888.59;5099758;27;66361;-43
2023/02/22 10:37:35;;;;;;;;;;;;;;;31.22;58.12;100891.13;5099624;27;69794;-43
2023/02/22 10:40:11;;;;;;;;;;;;;;;31.15;58.55;100889.31;5091946;27;67755;-44
2023/02/22 10:42:42;;;;;;;;;;;;;;;31.12;58.90;100886.22;5096897;27;70305;-42
2023/02/22 10:45:25;;;;;;;;;;;;;;;31.12;59.02;100895.19;5094673;27;65650;-42
2023/02/22 10:47:57;;;;;;;;;;;;;;;31.11;58.79;100887.28;5099418;27;70487;-44
2023/02/22 10:50:31;;;;;;;;;;;;;;;31.07;58.88;100889.59;5090840;27;66688;-43
2023/02/22 10:53:02;;;;;;;;;;;;;;;31.22;58.59;100896.56;5094580;27;69687;-41
2023/02/22 10:55:33;;;;;;;;;;;;;;;31.27;59.18;100902.97;5096019;27;66169;-45
2023/02/22 10:58:07;;;;;;;;;;;;;;;31.24;59.06;100897.19;5093920;27;69356;-45
2023/02/22 11:00:38;;;;;;;;;;;;;;;31.21;59.04;100900.34;5096149;27;66797;-43
2023/02/22 11:03:19;;;;;;;;;;;;;;;31.21;59.05;100903.88;5097566;27;70149;-42
2023/02/22 11:05:51;;;;;;;;;;;;;;;31.19;58.89;100911.38;5099314;27;66119;-43
2023/02/22 11:08:21;;;;;;;;;;;;;;;31.16;59.47;100915.34;5093378;27;69274;-42
2023/02/22 11:10:53;;;;;;;;;;;;;;;31.20;59.12;100917.63;5100239;27;66455;-43
2023/02/22 11:13:32;;;;;;;;;;;;;;;31.13;58.77;100926.66;5086256;27;70095;-44
2023/02/22 11:16:20;;;;;;;;;;;;;;;31.14;59.14;100931.00;5095644;27;65635;-42
2023/02/22 11:18:59;;;;;;;;;;;;;;;31.25;58.71;100931.34;5071638;27;69533;-42
2023/02/22 11:21:31;;;;;;;;;;;;;;;31.31;58.13;100935.88;5088719;27;66987;-43
2023/02/22 11:24:04;;;;;;;;;;;;;;;31.36;57.14;100945.03;5092526;27;69434;-42
2023/02/22 11:26:44;;;;;;;;;;;;;;;31.38;57.10;100951.06;5098311;27;66905;-42
2023/02/22 11:29:26;;;;;;;;;;;;;;;31.39;56.35;100954.59;5090794;27;70522;-44
2023/02/22 11:31:56;;;;;;;;;;;;;;;31.42;55.74;100954.16;5095412;27;65551;-43
2023/02/22 11:34:30;;;;;;;;;;;;;;;31.41;55.36;100957.91;5095770;27;70353;-43
2023/02/22 11:37:21;;;;;;;;;;;;;;;31.42;54.82;100964.16;5091581;27;65864;-43
2023/02/22 11:40:06;;;;;;;;;;;;;;;31.42;54.50;100959.56;5089326;27;70079;-43
2023/02/22 11:42:36;;;;;;;;;;;;;;;31.40;54.59;100972.53;5094331;27;65571;-43
2023/02/22 11:45:12;;;;;;;;;;;;;;;31.39;53.97;100968.16;5092133;27;70000;-42
2023/02/22 11:48:01;;;;;;;;;;;;;;;31.38;54.16;100969.22;5094111;27;66375;-42
2023/02/22 11:50:49;;;;;;;;;;;;;;;31.36;54.10;100971.31;5090724;27;69801;-41
2023/02/22 11:53:38;;;;;;;;;;;;;;;31.35;53.83;100969.63;5078617;27;65409;-41
2023/02/22 11:56:24;;;;;;;;;;;;;;;31.32;53.73;100964.66;5082243;27;69368;-41
2023/02/22 11:59:24;;;;;;;;;;;;;;;31.30;53.99;100972.16;5091367;27;66518;-42
2023/02/22 12:02:03;;;;;;;;;;;;;;;31.28;53.81;100974.25;5091502;27;69659;-44
2023/02/22 12:04:48;;;;;;;;;;;;;;;31.28;53.88;100987.81;5097664;27;66091;-42
2023/02/22 12:07:32;;;;;;;;;;;;;;;31.26;53.70;100981.78;5086309;27;70223;-43
2023/02/22 12:10:14;;;;;;;;;;;;;;;31.26;53.35;100992.63;5076404;27;65521;-42
2023/02/22 12:13:03;;;;;;;;;;;;;;;31.24;53.89;100994.75;5093722;27;69780;-44
2023/02/22 12:15:55;;;;;;;;;;;;;;;31.23;53.87;101009.31;5092840;27;66587;-42
2023/02/22 12:18:32;;;;;;;;;;;;;;;31.21;54.01;101008.72;5094053;27;70691;-42
2023/02/22 12:21:15;;;;;;;;;;;;;;;31.20;53.99;101009.75;5056718;27;65214;-43
2023/02/22 12:24:04;;;;;;;;;;;;;;;31.19;53.88;101010.81;5092627;27;70487;-43
2023/02/22 12:26:40;;;;;;;;;;;;;;;31.17;53.87;101005.59;5075236;27;65532;-43
2023/02/22 12:29:25;;;;;;;;;;;;;;;31.17;53.86;101025.44;5094843;27;69532;-43
2023/02/22 12:32:05;;;;;;;;;;;;;;;31.18;54.04;101026.25;5077121;27;65917;-42
2023/02/22 12:34:42;;;;;;;;;;;;;;;31.15;54.13;101022.09;5097211;27;69840;-42
2023/02/22 12:37:17;;;;;;;;;;;;;;;31.00;55.58;101018.03;5073341;27;65469;-42
2023/02/22 12:40:12;;;;;;;;;;;;;;;30.91;56.39;101022.88;5092520;27;70233;-42
2023/02/22 12:42:43;;;;;;;;;;;;;;;30.84;57.44;101024.78;5093307;27;66168;-43
2023/02/22 12:45:19;;;;;;;;;;;;;;;30.77;57.85;101021.25;5073690;27;70122;-44
2023/02/22 12:47:54;;;;;;;;;;;;;;;30.73;58.29;101021.69;5094326;27;66875;-44
2023/02/22 12:50:28;;;;;;;;;;;;;;;30.72;58.61;101024.59;5056802;27;69464;-42
2023/02/22 12:53:15;;;;;;;;;;;;;;;30.72;58.44;101025.44;5092993;27;67054;-42
2023/02/22 12:55:50;;;;;;;;;;;;;;;30.71;58.52;101026.47;5075710;27;69693;-43
2023/02/22 12:58:32;;;;;;;;;;;;;;;30.70;59.04;101027.53;5085833;27;65400;-45
2023/02/22 13:01:05;;;;;;;;;;;;;;;30.70;60.09;101027.53;5073761;27;70347;-42
2023/02/22 13:03:35;;;;;;;;;;;;;;;30.69;59.66;101031.28;5090702;27;66026;-42
2023/02/22 13:06:24;;;;;;;;;;;;;;;30.69;60.06;101025.88;5089843;27;69506;-42
2023/02/22 13:08:58;;;;;;;;;;;;;;;30.70;60.21;101037.53;5094441;27;66604;-41
2023/02/22 13:11:47;;;;;;;;;;;;;;;30.71;59.95;101042.72;5076363;27;70115;-42
2023/02/22 13:14:38;;;;;;;;;;;;;;;30.71;60.39;101048.16;5094900;27;65990;-42
2023/02/22 13:17:27;;;;;;;;;;;;;;;30.69;60.22;101036.69;5088042;27;68652;-42
2023/02/22 13:20:22;;;;;;;;;;;;;;;30.68;60.13;101035.03;5095886;27;65541;-43
2023/02/22 13:23:11;;;;;;;;;;;;;;;30.68;60.72;101040.47;5100142;27;69920;-43
2023/02/22 13:25:44;;;;;;;;;;;;;;;30.66;61.35;101037.13;5091454;27;65161;-42
2023/02/22 13:28:31;;;;;;;;;;;;;;;30.66;61.52;101037.13;5095597;27;70156;-42
2023/02/22 13:31:16;;;;;;;;;;;;;;;30.67;61.33;101044.22;5095437;27;67428;-44
2023/02/22 13:34:12;;;;;;;;;;;;;;;30.68;61.21;101039.63;5102674;27;69823;-43
2023/02/22 13:37:03;;;;;;;;;;;;;;;30.66;61.53;101042.53;5097225;27;66400;-41
2023/02/22 13:39:53;;;;;;;;;;;;;;;30.66;61.54;101047.97;5093682;27;70580;-43
2023/02/22 13:42:32;;;;;;;;;;;;;;;30.65;61.98;101054.44;5092726;27;66007;-44
2023/02/22 13:45:21;;;;;;;;;;;;;;;30.63;61.69;101052.97;5094753;27;70348;-42
2023/02/22 13:47:52;;;;;;;;;;;;;;;30.62;62.15;101052.16;5095294;27;65071;-49
2023/02/22 13:50:41;;;;;;;;;;;;;;;30.62;62.35;101054.88;5091565;27;70313;-42
2023/02/22 13:53:15;;;;;;;;;;;;;;;30.62;62.32;101045.88;5083943;27;66219;-43